createdAt,value
2019-02-09T00:00:37.817Z,36.37
2019-02-09T00:03:07.746Z,36.67
2019-02-09T00:05:37.029Z,36.34
2019-02-09T00:08:07.128Z,36.24
2019-02-09T00:10:38.990Z,36.53
2019-02-09T00:13:08.930Z,36.79
2019-02-09T00:15:38.973Z,36.41
2019-02-09T00:18:09.772Z,36.56
2019-02-09T00:20:39.408Z,36.56
2019-02-09T00:23:10.020Z,36.65
2019-02-09T00:25:41.763Z,36.56
2019-02-09T00:28:11.326Z,36.99
2019-02-09T00:30:40.095Z,36.44
2019-02-09T00:33:10.854Z,36.44
2019-02-09T00:37:38.122Z,36.42
2019-02-09T00:40:07.742Z,36.05
2019-02-09T00:42:38.663Z,36.05
2019-02-09T00:45:08.856Z,36.21
2019-02-09T00:47:38.504Z,35.61
2019-02-09T00:51:13.677Z,36.53
2019-02-09T00:53:42.301Z,36.52
2019-02-09T00:56:12.694Z,36.58
2019-02-09T00:58:41.968Z,36.73
2019-02-09T01:01:29.916Z,35.88
2019-02-09T01:03:58.821Z,35.47
2019-02-09T01:06:27.769Z,35.47
2019-02-09T01:09:37.759Z,36.54
2019-02-09T01:12:08.645Z,36.51
2019-02-09T01:14:37.740Z,36.18
2019-02-09T01:17:09.641Z,36.18
2019-02-09T01:19:38.812Z,36.22
2019-02-09T01:22:07.841Z,36.22
2019-02-09T01:24:39.100Z,36.04
2019-02-09T01:27:08.770Z,35.71
2019-02-09T01:29:39.658Z,35.32
2019-02-09T01:32:08.779Z,35.32
2019-02-09T01:34:37.847Z,35.44
2019-02-09T01:37:08.641Z,36.10
2019-02-09T01:39:37.794Z,36.51
2019-02-09T01:42:06.733Z,36.10
2019-02-09T01:44:35.643Z,36.10
2019-02-09T01:47:06.672Z,36.64
2019-02-09T01:49:35.901Z,35.96
2019-02-09T01:52:06.100Z,36.28
2019-02-09T01:54:37.029Z,36.39
2019-02-09T01:57:06.707Z,36.39
2019-02-09T01:59:35.377Z,35.72
2019-02-09T02:02:05.514Z,35.51
2019-02-09T02:04:35.875Z,35.30
2019-02-09T02:07:04.439Z,35.61
2019-02-09T02:10:26.836Z,35.68
2019-02-09T02:12:55.175Z,36.02
2019-02-09T02:15:24.350Z,35.89
2019-02-09T02:17:53.647Z,35.81
2019-02-09T02:20:24.932Z,35.42
2019-02-09T02:22:53.887Z,35.35
2019-02-09T02:25:23.742Z,35.50
2019-02-09T02:27:51.682Z,34.51
2019-02-09T02:30:27.057Z,34.51
2019-02-09T02:32:55.381Z,35.08
2019-02-09T02:35:24.657Z,35.60
2019-02-09T02:37:52.600Z,35.81
2019-02-09T02:40:21.421Z,35.81
2019-02-09T02:42:49.777Z,35.50
2019-02-09T02:45:18.835Z,35.50
2019-02-09T02:47:47.236Z,35.97
2019-02-09T02:50:35.111Z,35.78
2019-02-09T02:53:04.402Z,35.52
2019-02-09T02:55:33.020Z,34.98
2019-02-09T02:58:00.923Z,34.58
2019-02-09T03:00:49.857Z,34.97
2019-02-09T03:03:18.892Z,35.38
2019-02-09T03:05:47.789Z,35.62
2019-02-09T03:08:15.849Z,35.62
2019-02-09T03:11:04.706Z,35.56
2019-02-09T03:13:32.917Z,35.45
2019-02-09T03:16:02.065Z,35.47
2019-02-09T03:18:30.820Z,35.28
2019-02-09T03:21:18.871Z,35.28
2019-02-09T03:23:48.701Z,34.64
2019-02-09T03:26:18.584Z,34.64
2019-02-09T03:28:47.898Z,34.85
2019-02-09T03:31:19.257Z,34.73
2019-02-09T03:33:48.394Z,35.04
2019-02-09T03:36:16.847Z,35.04
2019-02-09T03:38:48.026Z,35.67
2019-02-09T03:41:17.590Z,35.01
2019-02-09T03:43:47.949Z,35.01
2019-02-09T03:46:16.931Z,35.28
2019-02-09T03:48:47.336Z,35.39
2019-02-09T03:51:17.241Z,34.73
2019-02-09T03:53:48.361Z,34.60
2019-02-09T03:56:17.751Z,34.60
2019-02-09T03:58:47.811Z,34.08
2019-02-09T04:01:17.015Z,34.60
2019-02-09T04:03:47.833Z,34.34
2019-02-09T04:06:17.683Z,35.37
2019-02-09T04:08:47.066Z,35.37
2019-02-09T04:11:17.178Z,35.67
2019-02-09T04:13:45.840Z,35.67
2019-02-09T04:16:14.828Z,35.59
2019-02-09T04:18:43.947Z,35.59
2019-02-09T04:21:13.889Z,35.37
2019-02-09T04:23:43.838Z,35.61
2019-02-09T04:26:13.780Z,35.61
2019-02-09T04:31:27.759Z,35.25
2019-02-09T04:33:58.401Z,35.71
2019-02-09T04:36:28.762Z,34.87
2019-02-09T04:38:57.806Z,35.36
2019-02-09T04:41:27.711Z,35.36
2019-02-09T04:43:57.137Z,35.51
2019-02-09T04:46:26.699Z,35.51
2019-02-09T04:48:56.345Z,35.82
2019-02-09T04:51:28.122Z,35.82
2019-02-09T04:53:57.227Z,35.99
2019-02-09T04:56:28.748Z,35.79
2019-02-09T04:58:58.853Z,35.48
2019-02-09T05:01:29.521Z,35.68
2019-02-09T05:03:59.783Z,35.68
2019-02-09T05:06:29.825Z,35.24
2019-02-09T05:09:01.711Z,35.24
2019-02-09T05:11:29.768Z,35.07
2019-02-09T05:13:58.913Z,35.16
2019-02-09T05:16:28.822Z,35.88
2019-02-09T05:18:57.758Z,35.88
2019-02-09T05:21:26.841Z,35.74
2019-02-09T05:23:55.057Z,35.91
2019-02-09T05:26:24.961Z,35.91
2019-02-09T05:28:54.030Z,35.79
2019-02-09T05:31:23.775Z,35.92
2019-02-09T05:33:52.768Z,35.92
2019-02-09T05:36:21.816Z,35.95
2019-02-09T05:38:50.775Z,35.08
2019-02-09T05:41:19.803Z,35.08
2019-02-09T05:43:48.761Z,35.30
2019-02-09T05:46:16.118Z,35.30
2019-02-09T05:48:45.379Z,35.53
2019-02-09T05:51:13.854Z,35.46
2019-02-09T05:53:42.139Z,35.46
2019-02-09T05:56:10.294Z,36.02
2019-02-09T05:58:39.532Z,35.54
2019-02-09T06:01:07.349Z,35.89
2019-02-09T06:03:34.832Z,35.89
2019-02-09T06:06:02.457Z,36.01
2019-02-09T06:08:30.531Z,36.15
2019-02-09T06:10:57.841Z,36.15
2019-02-09T06:13:25.453Z,35.95
2019-02-09T06:15:53.142Z,35.93
2019-02-09T06:18:21.650Z,35.57
2019-02-09T06:20:49.617Z,35.57
2019-02-09T06:23:18.036Z,35.14
2019-02-09T06:25:46.977Z,35.14
2019-02-09T06:28:14.706Z,35.15
2019-02-09T06:30:43.685Z,35.25
2019-02-09T06:33:11.474Z,35.00
2019-02-09T06:35:38.899Z,35.39
2019-02-09T06:38:07.814Z,35.91
2019-02-09T06:40:35.132Z,35.91
2019-02-09T06:43:03.815Z,35.78
2019-02-09T06:45:32.334Z,35.65
2019-02-09T06:48:24.886Z,35.65
2019-02-09T06:50:54.323Z,35.70
2019-02-09T06:53:22.058Z,35.52
2019-02-09T06:55:49.581Z,35.52
2019-02-09T06:58:16.921Z,35.72
2019-02-09T07:00:45.716Z,35.45
2019-02-09T07:03:14.741Z,35.03
2019-02-09T07:05:42.769Z,34.84
2019-02-09T07:08:11.154Z,34.84
2019-02-09T07:10:39.453Z,35.27
2019-02-09T07:13:07.681Z,35.81
2019-02-09T07:15:35.041Z,35.78
2019-02-09T07:18:04.622Z,35.89
2019-02-09T07:20:33.346Z,35.87
2019-02-09T07:23:01.280Z,35.91
2019-02-09T07:25:28.956Z,35.90
2019-02-09T07:27:56.899Z,35.81
2019-02-09T07:30:25.618Z,35.79
2019-02-09T07:32:53.068Z,35.91
2019-02-09T07:35:20.474Z,36.01
2019-02-09T07:37:48.492Z,35.40
2019-02-09T07:40:17.767Z,35.24
2019-02-09T07:42:46.997Z,34.82
2019-02-09T07:45:19.047Z,34.82
2019-02-09T07:47:47.073Z,34.87
2019-02-09T07:50:15.904Z,34.87
2019-02-09T07:52:45.395Z,35.23
2019-02-09T07:55:14.492Z,35.39
2019-02-09T07:57:43.606Z,35.66
2019-02-09T08:00:15.599Z,35.66
2019-02-09T08:02:43.854Z,35.64
2019-02-09T08:05:11.525Z,35.36
2019-02-09T08:07:39.509Z,35.46
2019-02-09T08:10:11.198Z,35.24
2019-02-09T08:12:38.809Z,35.24
2019-02-09T08:15:11.221Z,34.45
2019-02-09T08:17:39.013Z,34.45
2019-02-09T08:20:08.563Z,34.35
2019-02-09T08:22:36.660Z,34.37
2019-02-09T08:25:05.721Z,34.48
2019-02-09T08:27:34.074Z,34.53
2019-02-09T08:30:01.549Z,35.17
2019-02-09T08:32:29.727Z,35.17
2019-02-09T08:34:57.953Z,35.02
2019-02-09T08:37:25.350Z,35.03
2019-02-09T08:39:52.886Z,34.88
2019-02-09T08:42:20.919Z,34.86
2019-02-09T08:44:48.455Z,34.92
2019-02-09T08:47:16.796Z,35.05
2019-02-09T08:49:45.568Z,34.67
2019-02-09T08:52:14.321Z,34.27
2019-02-09T08:54:43.455Z,34.27
2019-02-09T08:57:11.198Z,34.22
2019-02-09T08:59:38.863Z,33.67
2019-02-09T09:02:06.228Z,33.67
2019-02-09T09:04:34.233Z,34.15
2019-02-09T09:07:01.901Z,33.90
2019-02-09T09:09:29.843Z,34.43
2019-02-09T09:11:57.428Z,34.43
2019-02-09T09:14:25.618Z,34.57
2019-02-09T09:16:53.081Z,34.51
2019-02-09T09:19:21.394Z,34.54
2019-02-09T09:21:49.522Z,34.30
2019-02-09T09:24:17.765Z,34.39
2019-02-09T09:26:45.776Z,34.11
2019-02-09T09:29:14.516Z,34.56
2019-02-09T09:31:42.481Z,34.27
2019-02-09T09:34:10.481Z,34.27
2019-02-09T09:36:38.042Z,34.10
2019-02-09T09:39:08.546Z,33.69
2019-02-09T09:43:31.787Z,34.31
2019-02-09T09:45:59.110Z,34.17
2019-02-09T09:51:12.504Z,33.49
2019-02-09T09:53:42.313Z,33.63
2019-02-09T09:56:10.250Z,33.80
2019-02-09T09:58:40.114Z,33.80
2019-02-09T10:01:07.874Z,34.45
2019-02-09T10:05:58.969Z,34.41
2019-02-09T10:08:28.144Z,34.58
2019-02-09T10:10:56.225Z,34.64
2019-02-09T10:13:27.948Z,34.51
2019-02-09T10:15:55.810Z,34.51
2019-02-09T10:18:24.006Z,34.58
2019-02-09T10:20:54.037Z,34.42
2019-02-09T10:23:22.425Z,34.42
2019-02-09T10:25:51.164Z,33.97
2019-02-09T10:28:19.517Z,34.65
2019-02-09T10:30:49.248Z,33.66
2019-02-09T10:33:17.097Z,33.66
2019-02-09T10:35:46.789Z,33.72
2019-02-09T10:38:16.620Z,34.54
2019-02-09T10:40:45.613Z,34.01
2019-02-09T10:43:14.652Z,33.94
2019-02-09T10:45:42.972Z,33.87
2019-02-09T10:48:12.967Z,33.53
2019-02-09T10:50:44.992Z,33.53
2019-02-09T10:53:14.627Z,33.42
2019-02-09T10:55:42.039Z,33.78
2019-02-09T10:58:10.661Z,33.78
2019-02-09T11:01:06.928Z,32.93
2019-02-09T11:03:35.580Z,32.43
2019-02-09T11:06:03.083Z,32.32
2019-02-09T11:08:32.313Z,32.42
2019-02-09T11:10:59.750Z,32.66
2019-02-09T11:13:28.891Z,32.64
2019-02-09T11:15:57.230Z,32.58
2019-02-09T11:18:27.291Z,32.59
2019-02-09T11:20:55.148Z,32.58
2019-02-09T11:23:25.035Z,32.58
2019-02-09T11:25:52.928Z,32.54
2019-02-09T11:28:21.561Z,32.98
2019-02-09T11:30:49.094Z,32.91
2019-02-09T11:33:18.726Z,32.22
2019-02-09T11:35:46.993Z,32.22
2019-02-09T11:38:16.820Z,32.48
2019-02-09T11:40:44.569Z,32.48
2019-02-09T11:43:14.182Z,32.05
2019-02-09T11:45:41.891Z,32.05
2019-02-09T11:48:11.446Z,32.11
2019-02-09T11:50:39.241Z,32.64
2019-02-09T11:53:09.061Z,32.87
2019-02-09T11:55:37.992Z,33.02
2019-02-09T11:58:07.604Z,33.02
2019-02-09T12:00:42.420Z,33.15
2019-02-09T12:03:14.888Z,33.14
2019-02-09T12:08:13.222Z,30.77
2019-02-09T12:10:43.250Z,29.66
2019-02-09T12:13:14.225Z,30.13
2019-02-09T12:15:44.577Z,30.26
2019-02-09T12:18:14.906Z,30.03
2019-02-09T12:20:43.615Z,29.53
2019-02-09T12:23:14.276Z,29.53
2019-02-09T12:25:43.754Z,30.44
2019-02-09T12:28:11.938Z,31.76
2019-02-09T12:30:40.999Z,32.75
2019-02-09T12:33:09.167Z,32.58
2019-02-09T12:35:39.214Z,33.54
2019-02-09T12:38:07.797Z,33.54
2019-02-09T12:42:14.186Z,33.52
2019-02-09T12:44:45.898Z,33.23
2019-02-09T12:47:15.922Z,33.43
2019-02-09T12:49:45.012Z,33.31
2019-02-09T12:52:14.106Z,33.31
2019-02-09T12:54:43.858Z,32.88
2019-02-09T12:57:14.541Z,32.64
2019-02-09T12:59:44.388Z,31.95
2019-02-09T13:02:11.734Z,31.95
2019-02-09T13:04:40.738Z,32.42
2019-02-09T13:07:09.094Z,33.00
2019-02-09T13:09:38.707Z,33.11
2019-02-09T13:12:07.894Z,33.11
2019-02-09T13:14:38.150Z,31.48
2019-02-09T13:17:07.204Z,31.48
2019-02-09T13:19:36.073Z,32.53
2019-02-09T13:22:04.836Z,33.27
2019-02-09T13:24:34.192Z,32.88
2019-02-09T13:27:05.009Z,32.21
2019-02-09T13:29:34.673Z,31.31
2019-02-09T13:32:04.837Z,31.74
2019-02-09T13:36:59.881Z,31.78
2019-02-09T13:39:30.304Z,31.78
2019-02-09T13:41:59.505Z,31.80
2019-02-09T13:44:29.250Z,31.80
2019-02-09T13:46:58.921Z,32.12
2019-02-09T13:49:27.324Z,32.55
2019-02-09T13:51:56.569Z,32.10
2019-02-09T13:54:25.128Z,32.95
2019-02-09T13:56:52.826Z,32.95
2019-02-09T13:59:22.412Z,33.01
2019-02-09T14:01:49.827Z,33.11
2019-02-09T14:04:18.847Z,33.11
2019-02-09T14:06:47.788Z,33.44
2019-02-09T14:09:17.342Z,33.15
2019-02-09T14:11:48.099Z,33.15
2019-02-09T14:14:17.556Z,32.93
2019-02-09T14:16:44.800Z,32.87
2019-02-09T14:19:14.971Z,32.87
2019-02-09T14:21:42.843Z,32.79
2019-02-09T14:24:12.815Z,32.80
2019-02-09T14:26:41.197Z,32.46
2019-02-09T14:29:11.439Z,32.85
2019-02-09T14:31:40.885Z,33.16
2019-02-09T14:34:09.997Z,33.33
2019-02-09T14:36:38.259Z,33.04
2019-02-09T14:39:10.847Z,33.29
2019-02-09T14:41:40.536Z,33.25
2019-02-09T14:44:10.532Z,33.62
2019-02-09T14:46:40.029Z,33.62
2019-02-09T14:49:12.231Z,33.73
2019-02-09T14:51:42.009Z,33.73
2019-02-09T14:54:12.401Z,33.34
2019-02-09T14:56:41.280Z,33.01
2019-02-09T14:59:10.374Z,33.21
2019-02-09T15:01:41.471Z,33.21
2019-02-09T15:06:54.223Z,33.38
2019-02-09T15:09:22.770Z,33.60
2019-02-09T15:11:51.353Z,33.33
2019-02-09T15:14:19.314Z,33.30
2019-02-09T15:16:51.249Z,33.30
2019-02-09T15:19:25.017Z,33.53
2019-02-09T15:21:58.458Z,33.65
2019-02-09T15:24:29.456Z,33.41
2019-02-09T15:26:59.687Z,33.24
2019-02-09T15:29:29.255Z,33.24
2019-02-09T15:31:59.683Z,32.54
2019-02-09T15:34:29.903Z,33.70
2019-02-09T15:36:59.854Z,33.70
2019-02-09T15:39:28.580Z,33.60
2019-02-09T15:41:58.631Z,32.22
2019-02-09T15:44:27.469Z,30.12
2019-02-09T15:46:57.662Z,29.28
2019-02-09T15:49:27.958Z,28.37
2019-02-09T15:51:57.712Z,28.46
2019-02-09T15:54:26.467Z,28.48
2019-02-09T15:56:54.612Z,28.52
2019-02-09T15:59:23.657Z,27.99
2019-02-09T16:01:52.645Z,27.99
2019-02-09T16:04:21.741Z,28.06
2019-02-09T16:06:52.150Z,27.83
2019-02-09T16:09:21.302Z,28.04
2019-02-09T16:11:50.773Z,28.04
2019-02-09T16:14:19.144Z,28.02
2019-02-09T16:16:49.592Z,27.95
2019-02-09T16:19:21.995Z,28.25
2019-02-09T16:21:50.635Z,29.28
2019-02-09T16:24:19.060Z,29.28
2019-02-09T16:26:48.378Z,29.66
2019-02-09T16:29:18.185Z,30.24
2019-02-09T16:31:46.930Z,30.24
2019-02-09T16:34:17.370Z,30.40
2019-02-09T16:36:46.319Z,30.52
2019-02-09T16:41:59.272Z,30.42
2019-02-09T16:44:28.080Z,30.59
2019-02-09T16:46:57.113Z,33.60
2019-02-09T16:50:55.118Z,34.95
2019-02-09T16:53:23.252Z,34.49
2019-02-09T16:55:53.002Z,33.96
2019-02-09T16:58:21.458Z,34.28
2019-02-09T17:00:51.104Z,34.28
2019-02-09T17:03:19.002Z,34.35
2019-02-09T17:05:48.638Z,34.43
2019-02-09T17:08:17.327Z,34.43
2019-02-09T17:10:48.008Z,35.37
2019-02-09T17:13:17.736Z,35.13
2019-02-09T17:15:48.124Z,34.16
2019-02-09T17:18:17.691Z,34.16
2019-02-09T17:20:47.891Z,34.17
2019-02-09T17:23:16.381Z,34.08
2019-02-09T17:25:45.673Z,33.92
2019-02-09T17:28:13.942Z,34.46
2019-02-09T17:30:42.228Z,34.06
2019-02-09T17:33:12.213Z,34.06
2019-02-09T17:35:44.119Z,32.70
2019-02-09T17:38:13.575Z,32.91
2019-02-09T17:40:46.783Z,33.23
2019-02-09T17:43:23.282Z,33.19
2019-02-09T17:46:06.030Z,33.19
2019-02-09T17:48:36.392Z,33.26
2019-02-09T17:51:06.511Z,33.39
2019-02-09T17:53:35.829Z,33.39
2019-02-09T17:56:06.178Z,33.55
2019-02-09T17:58:34.827Z,33.55
2019-02-09T18:01:06.255Z,33.29
2019-02-09T18:03:36.060Z,32.80
2019-02-09T18:06:07.248Z,32.60
2019-02-09T18:08:37.249Z,32.60
2019-02-09T18:11:06.785Z,33.58
2019-02-09T18:15:32.398Z,33.44
2019-02-09T18:18:02.121Z,33.44
2019-02-09T18:20:32.670Z,33.63
2019-02-09T18:23:01.831Z,33.56
2019-02-09T18:25:31.271Z,33.66
2019-02-09T18:27:59.099Z,33.74
2019-02-09T18:30:30.157Z,33.89
2019-02-09T18:32:57.792Z,33.89
2019-02-09T18:35:28.344Z,33.98
2019-02-09T18:37:58.329Z,33.76
2019-02-09T18:42:01.723Z,34.71
2019-02-09T18:44:31.204Z,35.08
2019-02-09T18:47:00.715Z,34.95
2019-02-09T18:49:45.789Z,34.61
2019-02-09T18:52:14.911Z,35.21
2019-02-09T18:54:44.211Z,35.21
2019-02-09T18:57:13.529Z,34.82
2019-02-09T18:59:43.404Z,34.82
2019-02-09T19:04:28.505Z,35.77
2019-02-09T19:06:56.768Z,36.04
2019-02-09T19:09:27.137Z,36.43
2019-02-09T19:11:56.542Z,36.42
2019-02-09T19:14:25.593Z,36.42
2019-02-09T19:17:30.106Z,34.66
2019-02-09T19:19:58.945Z,34.66
2019-02-09T19:22:28.809Z,34.19
2019-02-09T19:24:58.105Z,34.45
2019-02-09T19:27:26.200Z,34.45
2019-02-09T19:29:55.503Z,34.67
2019-02-09T19:32:26.125Z,34.16
2019-02-09T19:34:55.100Z,34.91
2019-02-09T19:37:23.379Z,34.91
2019-02-09T19:41:21.405Z,34.85
2019-02-09T19:43:49.362Z,34.23
2019-02-09T19:46:16.696Z,34.00
2019-02-09T19:48:45.438Z,34.27
2019-02-09T19:51:13.472Z,34.61
2019-02-09T19:53:41.271Z,34.61
2019-02-09T19:56:10.468Z,34.91
2019-02-09T19:58:39.390Z,35.11
2019-02-09T20:01:07.533Z,35.11
2019-02-09T20:03:36.958Z,35.43
2019-02-09T20:06:06.287Z,35.56
2019-02-09T20:08:33.901Z,35.56
2019-02-09T20:11:01.455Z,34.29
2019-02-09T20:13:28.806Z,34.29
2019-02-09T20:15:57.619Z,34.13
2019-02-09T20:18:27.017Z,34.13
2019-02-09T20:20:55.952Z,33.55
2019-02-09T20:23:24.416Z,33.55
2019-02-09T20:25:51.779Z,33.93
2019-02-09T20:28:20.310Z,33.79
2019-02-09T20:30:49.549Z,34.57
2019-02-09T20:33:17.488Z,34.57
2019-02-09T20:35:45.564Z,34.60
2019-02-09T20:38:13.566Z,34.62
2019-02-09T20:40:47.643Z,34.62
2019-02-09T20:43:16.856Z,34.79
2019-02-09T20:45:45.865Z,34.74
2019-02-09T20:48:13.816Z,34.70
2019-02-09T20:50:43.031Z,35.20
2019-02-09T20:53:10.748Z,35.20
2019-02-09T20:55:39.448Z,34.70
2019-02-09T20:58:09.056Z,34.49
2019-02-09T21:00:37.190Z,34.49
2019-02-09T21:03:05.630Z,34.54
2019-02-09T21:05:36.543Z,34.61
2019-02-09T21:08:03.773Z,35.73
2019-02-09T21:13:15.211Z,35.08
2019-02-09T21:15:43.003Z,35.22
2019-02-09T21:18:13.202Z,35.05
2019-02-09T21:20:41.856Z,34.80
2019-02-09T21:23:11.339Z,34.80
2019-02-09T21:25:42.183Z,35.93
2019-02-09T21:28:12.264Z,36.73
2019-02-09T21:30:40.055Z,36.73
2019-02-09T21:33:09.256Z,37.53
2019-02-09T21:35:43.692Z,37.50
2019-02-09T21:38:10.433Z,36.81
2019-02-09T21:40:38.538Z,37.24
2019-02-09T21:43:07.703Z,36.91
2019-02-09T21:45:44.593Z,37.06
2019-02-09T21:49:15.848Z,37.36
2019-02-09T21:51:44.508Z,37.36
2019-02-09T21:54:13.435Z,37.17
2019-02-09T21:56:43.124Z,37.06
2019-02-09T21:59:12.184Z,37.06
2019-02-09T22:01:41.781Z,37.06
2019-02-09T22:04:11.297Z,37.02
2019-02-09T22:08:19.565Z,36.98
2019-02-09T22:10:44.823Z,36.43
2019-02-09T22:13:13.611Z,36.19
2019-02-09T22:15:41.499Z,36.43
2019-02-09T22:18:11.129Z,36.65
2019-02-09T22:20:40.555Z,36.65
2019-02-09T22:23:10.065Z,36.90
2019-02-09T22:25:39.541Z,36.73
2019-02-09T22:28:08.709Z,36.61
2019-02-09T22:30:38.231Z,36.61
2019-02-09T22:33:07.935Z,36.28
2019-02-09T22:35:40.945Z,36.28
2019-02-09T22:38:12.769Z,36.50
2019-02-09T22:40:42.444Z,36.29
2019-02-09T22:43:12.081Z,36.27
2019-02-09T22:45:43.197Z,36.27
2019-02-09T22:48:12.789Z,35.44
2019-02-09T22:50:44.060Z,35.75
2019-02-09T22:53:12.933Z,35.75
2019-02-09T22:55:42.033Z,36.27
2019-02-09T22:58:10.731Z,36.54
2019-02-09T23:01:18.395Z,36.56
2019-02-09T23:04:08.981Z,36.50
2019-02-09T23:07:03.136Z,36.98
2019-02-09T23:09:32.864Z,35.97
2019-02-09T23:12:01.571Z,36.85
2019-02-09T23:14:30.405Z,36.89
2019-02-09T23:16:58.594Z,36.50
2019-02-09T23:19:28.205Z,36.50
2019-02-09T23:21:58.085Z,35.79
2019-02-09T23:24:28.049Z,35.79
2019-02-09T23:26:59.206Z,35.62
2019-02-09T23:29:28.099Z,35.62
2019-02-09T23:31:56.648Z,35.71
2019-02-09T23:34:26.213Z,35.55
2019-02-09T23:36:55.632Z,35.52
2019-02-09T23:39:24.673Z,35.08
2019-02-09T23:41:54.076Z,35.08
2019-02-09T23:44:23.588Z,35.46
2019-02-09T23:46:53.891Z,35.62
2019-02-09T23:49:23.125Z,35.60
2019-02-09T23:51:52.479Z,35.61
2019-02-09T23:54:22.873Z,35.27
2019-02-09T23:56:52.309Z,35.27
2019-02-09T23:59:24.024Z,35.75
